Estación Meteorológica Peña el Pijo (Robertgarden) [ 11/20/18 01:10:31 CET ]

Fecha Hora Presion(HPa) Temp (°C) Humedad % Rocio (°C) Viento ( m/s) Direccion Lluvia 1Hora(mm) Lluvia 24H(mm) LLuvia Total(mm)
2018-Nov-07 01:01:55 1005.200 1.3 77 -2.3         96.34
2018-Nov-07 02:01:42 1004.000 0.4 79 -2.8         96.34
2018-Nov-07 03:03:12 1003.800 0.1 81 -2.8         96.34
2018-Nov-07 04:02:06 1003.600 -0.4 82 -3.1         96.34
2018-Nov-07 05:02:10 1004.200 -0.7 83 -3.2         96.34
2018-Nov-07 06:01:55 1004.600 -0.1 84 -2.5         96.34
2018-Nov-07 07:01:50 1003.800 4.1 85 1.8         96.34
2018-Nov-07 08:01:48 1005.000 4.9 81 1.9 2.7 WNW     96.34
2018-Nov-07 09:01:32 1005.700 7.3 79 3.9         96.34
2018-Nov-07 10:01:44 1005.900 11.1 70 5.9 1.1 N     96.34
2018-Nov-07 11:01:49 1006.300 13.1 62 5.9 1.7 N     96.34
2018-Nov-07 12:02:01 1006.800 14.4 60 6.8         96.34
2018-Nov-07 13:01:50 1006.400 15.3 60 7.6         96.34
2018-Nov-07 14:01:52 1006.200 15.9 57 7.4 1.6 NNW     96.34
2018-Nov-07 15:01:41 1006.400 14.4 61 7.0 2.5 N     96.34
2018-Nov-07 16:02:05 1006.400 13.9 63 7.0 1.3 NW     96.34
2018-Nov-07 17:01:51 1006.900 13.0 67 7.0         96.34
2018-Nov-07 18:01:51 1007.200 12.3 71 7.2 2.7 NNW     96.34
2018-Nov-07 19:02:09 1007.700 11.6 73 6.9         96.34
2018-Nov-07 20:01:45 1008.000 9.8 75 5.5         96.34
2018-Nov-07 21:01:43 1008.600 7.8 79 4.4         96.34
2018-Nov-07 22:01:32 1009.000 6.4 82 3.5         96.34
2018-Nov-07 23:01:37 1009.100 6.3 84 3.8         96.34

Temperatura Máxima:15°    Temperatura Mínima:
Presión Máxima:1009.100 Hpa    Presión Mínima:1003.600 Hpa


Volver